Aviation Digital Data Service (ADDS)

Output produced by TAFs form (1842 UTC 27 July 2017)
found at http://aviationweather.gov/adds/tafs/
 
KTEX 271720Z 2718/2818 VRB03KT P6SM SCT250 
     FM272000 28006KT P6SM SCT080 BKN200 
     FM280200 14004KT P6SM SCT100 BKN150 
     FM280700 12003KT P6SM BKN200